Time;durP1;ratioP1;P1;durP2;ratioP2;P2;SDS_P1;SDS_P2;PMS_P1;PMS_P2;Temp;Humidity;BMP_temperature;BMP_pressure;BME280_temperature;BME280_humidity;BME280_pressure;Samples;Min_cycle;Max_cycle;Signal;HPM_P1;HPM_P2
2022/11/23 00:01:36;;;;;;;6.43;3.10;;;;;;;8.62;57.98;96592.34;8316758;28;20227;-74
2022/11/23 00:05:38;;;;;;;8.00;3.90;;;;;;;8.64;57.62;96610.31;8316507;28;20393;-74
2022/11/23 00:09:42;;;;;;;9.23;3.50;;;;;;;8.67;58.17;96610.16;8316383;28;20231;-74
2022/11/23 00:13:46;;;;;;;8.97;4.50;;;;;;;8.52;58.17;96617.84;8316119;28;20418;-74
2022/11/23 00:17:48;;;;;;;8.03;4.00;;;;;;;8.44;58.67;96614.06;8316061;28;20241;-74
2022/11/23 00:21:52;;;;;;;9.20;4.30;;;;;;;8.60;58.59;96622.56;8316139;28;20231;-74
2022/11/23 00:25:55;;;;;;;10.23;5.00;;;;;;;8.47;58.95;96619.03;8315623;28;20305;-74
2022/11/23 00:29:58;;;;;;;8.67;5.07;;;;;;;8.52;58.26;96617.03;8315792;28;20237;-73
2022/11/23 00:34:01;;;;;;;9.23;4.40;;;;;;;8.51;58.48;96612.78;8315719;28;20229;-74
2022/11/23 00:38:03;;;;;;;9.67;4.37;;;;;;;8.44;58.46;96616.66;8315215;28;20231;-73
2022/11/23 00:42:07;;;;;;;11.80;4.90;;;;;;;8.54;58.43;96616.00;8315230;28;20234;-74
2022/11/23 00:46:13;;;;;;;9.93;4.90;;;;;;;8.49;58.22;96607.72;8315282;28;20450;-75
2022/11/23 00:50:16;;;;;;;8.50;3.53;;;;;;;8.38;58.66;96610.06;8315521;28;20242;-74
2022/11/23 00:54:19;;;;;;;9.13;4.23;;;;;;;8.14;59.40;96602.78;8315377;28;20230;-75
2022/11/23 00:58:24;;;;;;;4.73;3.07;;;;;;;8.42;58.38;96614.16;8315232;28;20228;-75
2022/11/23 01:02:26;;;;;;;5.17;2.60;;;;;;;8.31;58.91;96608.75;8314921;28;20233;-75
2022/11/23 01:06:31;;;;;;;6.47;2.90;;;;;;;8.32;58.59;96618.97;8314712;28;20231;-75
2022/11/23 01:10:34;;;;;;;4.67;2.47;;;;;;;8.21;58.52;96600.69;8314724;28;20499;-75
2022/11/23 01:14:38;;;;;;;5.60;2.83;;;;;;;8.18;59.14;96621.50;8314207;28;20231;-75
2022/11/23 01:18:41;;;;;;;5.97;2.80;;;;;;;8.24;58.79;96608.25;8314462;28;20223;-75
2022/11/23 01:22:44;;;;;;;4.60;2.70;;;;;;;8.19;58.83;96615.44;8314544;28;20501;-75
2022/11/23 01:26:51;;;;;;;4.47;2.60;;;;;;;8.13;58.74;96628.63;8314052;28;20234;-74
2022/11/23 01:30:55;;;;;;;5.43;2.83;;;;;;;8.27;58.54;96626.13;8313778;28;20230;-74
2022/11/23 01:34:58;;;;;;;6.20;3.00;;;;;;;8.22;58.57;96628.97;8314451;28;20535;-74
2022/11/23 01:39:02;;;;;;;8.03;2.80;;;;;;;8.23;58.55;96635.78;8314397;28;20289;-74
2022/11/23 01:43:10;;;;;;;4.57;2.50;;;;;;;8.20;58.57;96630.78;8314010;28;20507;-74
2022/11/23 01:47:14;;;;;;;5.00;2.60;;;;;;;8.27;58.26;96631.28;8313988;28;20234;-75
2022/11/23 01:51:19;;;;;;;5.17;2.83;;;;;;;8.05;58.88;96639.38;8320349;28;20225;-74
2022/11/23 01:55:22;;;;;;;5.07;3.30;;;;;;;7.77;60.06;96643.50;8320652;28;20276;-72
2022/11/23 01:59:25;;;;;;;7.17;2.90;;;;;;;7.85;58.72;96642.25;8320522;28;20230;-75
2022/11/23 02:03:30;;;;;;;5.17;3.13;;;;;;;7.85;58.61;96644.81;8320203;28;20222;-73
2022/11/23 02:07:33;;;;;;;6.37;3.00;;;;;;;7.91;58.65;96658.19;8320354;28;20313;-73
2022/11/23 02:11:39;;;;;;;6.43;3.20;;;;;;;7.79;58.14;96643.41;8320249;28;20287;-73
2022/11/23 02:15:42;;;;;;;3.60;2.90;;;;;;;7.90;58.75;96658.28;8319853;28;20230;-73
2022/11/23 02:19:55;;;;;;;5.97;2.93;;;;;;;7.98;58.64;96658.72;8319968;28;20230;-73
2022/11/23 02:24:01;;;;;;;5.50;2.80;;;;;;;7.80;58.37;96663.91;8319489;28;20464;-73
2022/11/23 02:28:06;;;;;;;5.13;2.73;;;;;;;7.89;58.42;96669.50;8319896;28;20230;-73
2022/11/23 02:32:09;;;;;;;4.90;2.60;;;;;;;7.83;58.31;96670.69;8319506;28;20325;-74
2022/11/23 02:36:29;;;;;;;6.03;2.60;;;;;;;7.85;57.83;96661.13;8319372;28;20234;-73
2022/11/23 02:40:33;;;;;;;3.50;2.33;;;;;;;7.97;58.46;96668.16;8319213;28;20230;-73
2022/11/23 02:44:42;;;;;;;4.40;3.03;;;;;;;7.86;58.70;96667.09;8319176;28;20241;-72
2022/11/23 02:48:45;;;;;;;6.00;3.37;;;;;;;7.61;59.28;96664.06;8318942;28;20222;-74
2022/11/23 02:52:48;;;;;;;6.40;3.33;;;;;;;7.71;59.76;96664.44;8319005;28;20241;-73
2022/11/23 02:56:51;;;;;;;6.47;3.37;;;;;;;7.59;59.76;96659.94;8318686;28;20518;-74
2022/11/23 03:00:55;;;;;;;8.37;3.53;;;;;;;7.92;58.88;96666.75;8317903;28;20222;-72
2022/11/23 03:04:57;;;;;;;5.03;3.50;;;;;;;7.73;59.04;96674.63;8318388;28;20261;-73
2022/11/23 03:09:01;;;;;;;6.10;3.70;;;;;;;7.44;59.69;96677.00;8318395;28;20340;-73
2022/11/23 03:13:05;;;;;;;7.27;3.20;;;;;;;7.46;59.76;96682.09;8318464;28;20459;-75
2022/11/23 03:17:10;;;;;;;5.80;2.87;;;;;;;7.71;59.18;96677.31;8318132;28;20246;-73
2022/11/23 03:21:12;;;;;;;6.37;2.93;;;;;;;7.79;58.96;96679.50;8318063;28;20250;-74
2022/11/23 03:25:15;;;;;;;4.73;2.83;;;;;;;7.54;59.04;96683.38;8317997;28;20248;-74
2022/11/23 03:29:18;;;;;;;3.80;2.77;;;;;;;7.59;59.23;96662.50;8317985;28;20230;-74
2022/11/23 03:33:22;;;;;;;4.80;3.10;;;;;;;7.79;58.92;96677.75;8317690;28;20230;-74
2022/11/23 03:37:25;;;;;;;5.63;2.90;;;;;;;7.64;58.65;96675.97;8317441;28;20233;-74
2022/11/23 03:41:28;;;;;;;4.27;2.60;;;;;;;7.68;58.98;96671.50;8317244;28;20234;-74
2022/11/23 03:45:30;;;;;;;5.90;3.07;;;;;;;7.72;58.90;96676.41;8317346;28;20234;-74
2022/11/23 03:49:34;;;;;;;5.10;3.10;;;;;;;7.73;59.06;96675.50;8317115;28;20333;-74
2022/11/23 03:53:37;;;;;;;3.07;2.67;;;;;;;7.60;59.86;96683.03;8317070;28;20230;-74
2022/11/23 03:57:40;;;;;;;5.43;3.10;;;;;;;7.27;60.79;96687.38;8316778;28;20340;-74
2022/11/23 04:01:43;;;;;;;4.67;2.70;;;;;;;7.59;59.65;96689.09;8316789;28;20226;-74
2022/11/23 04:05:47;;;;;;;5.57;3.00;;;;;;;7.63;59.88;96671.72;8316696;28;20226;-74
2022/11/23 04:09:50;;;;;;;7.67;2.90;;;;;;;7.53;59.21;96663.66;8316227;28;20299;-74
2022/11/23 04:13:52;;;;;;;5.63;2.70;;;;;;;7.77;58.93;96655.56;8315520;28;20564;-74
2022/11/23 04:17:55;;;;;;;7.27;3.00;;;;;;;7.56;60.29;96663.50;8315976;28;20281;-74
2022/11/23 04:22:00;;;;;;;5.60;3.23;;;;;;;7.73;59.09;96647.16;8316250;28;20230;-74
2022/11/23 04:26:02;;;;;;;4.23;3.10;;;;;;;7.66;60.21;96645.81;8315875;28;20480;-74
2022/11/23 04:30:06;;;;;;;8.97;3.33;;;;;;;7.30;60.89;96653.75;8315694;28;20549;-74
2022/11/23 04:34:09;;;;;;;5.27;3.27;;;;;;;7.61;60.25;96652.94;8315773;28;20249;-74
2022/11/23 04:38:14;;;;;;;6.20;3.77;;;;;;;7.62;59.93;96654.63;8315544;28;20254;-74
2022/11/23 04:42:16;;;;;;;6.87;4.07;;;;;;;7.64;60.46;96656.19;8315342;28;20301;-75
2022/11/23 04:46:19;;;;;;;7.83;3.93;;;;;;;7.85;60.01;96655.97;8315318;28;20391;-74
2022/11/23 04:50:22;;;;;;;7.73;3.73;;;;;;;7.86;59.74;96659.34;8315390;28;20249;-74
2022/11/23 04:54:26;;;;;;;6.47;3.80;;;;;;;7.83;60.03;96662.94;8315135;28;20238;-74
2022/11/23 04:58:29;;;;;;;7.97;3.30;;;;;;;7.17;61.79;96667.22;8315100;28;20391;-75
2022/11/23 05:02:36;;;;;;;9.43;3.47;;;;;;;7.67;60.48;96644.88;8315095;28;20386;-75
2022/11/23 05:06:38;;;;;;;4.20;2.87;;;;;;;7.26;62.07;96652.25;8314896;28;20249;-74
2022/11/23 05:10:43;;;;;;;7.13;3.27;;;;;;;6.97;62.30;96634.81;8314771;28;20416;-75
2022/11/23 05:14:46;;;;;;;7.67;3.30;;;;;;;7.45;62.13;96647.78;8314782;28;20245;-75
2022/11/23 05:18:48;;;;;;;6.33;3.40;;;;;;;7.56;60.59;96635.16;8314559;28;20242;-75
2022/11/23 05:22:51;;;;;;;5.03;3.30;;;;;;;7.40;61.98;96634.31;8313864;28;20303;-75
2022/11/23 05:26:55;;;;;;;7.47;3.57;;;;;;;7.34;61.30;96639.78;8314130;28;20245;-74
2022/11/23 05:30:58;;;;;;;5.43;3.00;;;;;;;7.50;61.57;96632.06;8314342;28;20233;-74
2022/11/23 05:35:01;;;;;;;7.30;3.50;;;;;;;7.35;61.52;96633.72;8314089;28;20265;-75
2022/11/23 05:39:03;;;;;;;5.80;2.83;;;;;;;7.39;62.33;96642.97;8313964;28;20237;-74
2022/11/23 05:43:07;;;;;;;7.70;3.30;;;;;;;7.70;60.70;96644.72;8314153;28;20233;-75
2022/11/23 05:47:10;;;;;;;5.60;3.23;;;;;;;7.69;60.99;96645.66;8313971;28;20280;-74
2022/11/23 05:51:13;;;;;;;6.70;3.40;;;;;;;7.70;60.61;96642.16;8313947;28;20506;-73
2022/11/23 05:55:16;;;;;;;7.00;3.73;;;;;;;7.71;60.65;96656.72;8313680;28;20230;-72
2022/11/23 05:59:20;;;;;;;9.30;4.87;;;;;;;7.72;60.44;96648.06;8314039;28;20222;-73
2022/11/23 06:03:23;;;;;;;8.13;4.80;;;;;;;7.83;60.52;96652.63;8313648;28;20225;-73
2022/11/23 06:07:26;;;;;;;8.27;5.40;;;;;;;7.57;61.76;96649.69;8313765;28;20254;-74
2022/11/23 06:11:30;;;;;;;10.33;5.83;;;;;;;7.43;61.81;96631.56;8313953;28;20333;-73
2022/11/23 06:15:34;;;;;;;12.50;6.03;;;;;;;7.32;62.34;96660.47;8313296;28;20564;-73
2022/11/23 06:19:37;;;;;;;11.00;5.13;;;;;;;6.83;63.54;96653.53;8313761;28;20237;-74
2022/11/23 06:23:40;;;;;;;9.63;5.43;;;;;;;7.40;62.53;96657.50;8313600;28;20290;-73
2022/11/23 06:27:42;;;;;;;10.70;4.70;;;;;;;7.39;62.42;96663.56;8313390;28;20526;-73
2022/11/23 06:31:47;;;;;;;10.63;5.07;;;;;;;7.45;62.40;96665.81;8313019;28;20246;-73
2022/11/23 06:35:54;;;;;;;8.97;4.70;;;;;;;7.37;62.10;96652.50;8316531;28;20242;-73
2022/11/23 06:39:56;;;;;;;9.17;5.00;;;;;;;6.91;64.97;96660.88;8318942;28;20230;-72
2022/11/23 06:43:59;;;;;;;11.00;5.50;;;;;;;6.71;64.83;96664.41;8319419;28;20234;-75
2022/11/23 06:48:04;;;;;;;9.07;5.00;;;;;;;7.26;63.35;96670.28;8318705;28;20241;-74
2022/11/23 06:52:07;;;;;;;9.20;5.80;;;;;;;6.20;66.20;96674.56;8318274;28;20226;-74
2022/11/23 06:56:10;;;;;;;10.23;6.33;;;;;;;7.29;64.04;96685.53;8318565;28;20238;-73
2022/11/23 07:00:13;;;;;;;14.00;9.30;;;;;;;7.23;63.78;96682.38;8318665;28;20234;-74
2022/11/23 07:04:18;;;;;;;14.30;9.77;;;;;;;7.46;62.79;96682.91;8318559;28;20230;-73
2022/11/23 07:08:21;;;;;;;10.30;6.47;;;;;;;7.33;63.54;96694.78;8318208;28;20230;-73
2022/11/23 07:12:24;;;;;;;8.70;6.17;;;;;;;7.28;63.00;96695.03;8318431;28;20246;-73
2022/11/23 07:16:26;;;;;;;8.03;4.97;;;;;;;6.77;65.57;96689.84;8317897;28;20423;-73
2022/11/23 07:20:31;;;;;;;6.53;4.07;;;;;;;7.06;64.92;96708.13;8317855;28;20505;-73
2022/11/23 07:24:33;;;;;;;8.83;3.87;;;;;;;7.60;62.45;96703.66;8317924;28;20246;-73
2022/11/23 07:28:44;;;;;;;8.07;4.40;;;;;;;7.52;62.48;96707.53;8317772;28;20237;-73
2022/11/23 07:32:47;;;;;;;8.03;4.50;;;;;;;7.66;62.39;96709.41;8317432;28;20229;-73
2022/11/23 07:36:51;;;;;;;8.93;4.83;;;;;;;7.41;62.78;96708.09;8317585;28;20238;-74
2022/11/23 07:40:54;;;;;;;8.77;4.47;;;;;;;7.26;63.42;96721.78;8316952;28;20241;-72
2022/11/23 07:44:56;;;;;;;8.13;4.63;;;;;;;6.98;64.38;96713.66;8316809;28;20438;-73
2022/11/23 07:49:01;;;;;;;8.17;4.20;;;;;;;6.83;65.80;96723.00;8316427;28;20254;-73
2022/11/23 07:53:06;;;;;;;9.90;4.80;;;;;;;6.89;65.36;96727.00;8316817;28;20237;-73
2022/11/23 07:57:09;;;;;;;6.43;4.50;;;;;;;7.05;65.71;96733.06;8316824;28;20242;-73
2022/11/23 08:01:16;;;;;;;8.57;4.77;;;;;;;7.00;64.79;96729.88;8316567;28;20502;-73
2022/11/23 08:05:20;;;;;;;6.67;4.20;;;;;;;7.14;65.05;96726.63;8316333;28;20456;-73
2022/11/23 08:09:24;;;;;;;7.77;4.30;;;;;;;7.71;63.19;96736.59;8316326;28;20549;-74
2022/11/23 08:13:27;;;;;;;8.20;4.33;;;;;;;7.13;65.06;96729.28;8315938;28;20237;-73
2022/11/23 08:17:30;;;;;;;7.70;4.17;;;;;;;7.12;65.42;96736.16;8315932;28;20246;-75
2022/11/23 08:21:33;;;;;;;8.17;5.07;;;;;;;7.35;64.25;96734.16;8315590;28;20230;-73
2022/11/23 08:25:37;;;;;;;7.83;5.03;;;;;;;7.04;64.74;96738.28;8316038;28;20222;-74
2022/11/23 08:29:39;;;;;;;8.73;4.87;;;;;;;6.94;65.12;96734.50;8315666;28;20530;-73
2022/11/23 08:33:42;;;;;;;7.43;4.33;;;;;;;7.11;65.39;96739.63;8315424;28;20233;-74
2022/11/23 08:37:45;;;;;;;7.47;4.23;;;;;;;6.76;67.07;96726.78;8315506;28;20565;-73
2022/11/23 08:41:49;;;;;;;7.67;4.33;;;;;;;7.26;65.12;96724.34;8315556;28;20226;-74
2022/11/23 08:45:54;;;;;;;7.83;4.67;;;;;;;7.43;64.21;96732.03;8315252;28;20230;-74
2022/11/23 08:50:05;;;;;;;7.33;4.13;;;;;;;7.47;64.79;96727.56;8314895;28;20226;-73
2022/11/23 08:54:08;;;;;;;6.50;4.03;;;;;;;7.50;64.46;96729.97;8315292;28;20552;-74
2022/11/23 08:58:12;;;;;;;6.00;4.20;;;;;;;7.21;65.37;96727.97;8314924;28;20246;-75
2022/11/23 09:02:15;;;;;;;8.93;4.23;;;;;;;8.12;67.37;96728.38;8314653;28;20229;-76
2022/11/23 09:06:18;;;;;;;7.87;3.80;;;;;;;8.64;64.40;96723.88;8314698;28;20234;-76
2022/11/23 09:10:21;;;;;;;7.27;4.27;;;;;;;8.84;63.44;96728.75;8314580;28;20556;-76
2022/11/23 09:14:26;;;;;;;9.60;4.40;;;;;;;9.24;59.40;96733.38;8314296;28;20405;-76
2022/11/23 09:18:30;;;;;;;7.93;4.43;;;;;;;9.36;60.94;96736.03;8314184;28;20242;-76
2022/11/23 09:22:32;;;;;;;8.80;4.33;;;;;;;8.78;59.92;96727.34;8313951;28;20234;-74
2022/11/23 09:26:36;;;;;;;6.90;4.10;;;;;;;8.70;60.25;96736.44;8314098;28;20254;-74
2022/11/23 09:30:41;;;;;;;7.17;3.93;;;;;;;8.32;60.92;96732.47;8314121;28;20222;-75
2022/11/23 09:34:44;;;;;;;10.47;4.67;;;;;;;8.79;60.42;96729.00;8314171;28;20582;-74
2022/11/23 09:38:46;;;;;;;8.77;4.73;;;;;;;8.41;61.15;96736.28;8314034;28;20464;-74
2022/11/23 09:43:15;;;;;;;8.27;4.50;;;;;;;8.35;61.63;96731.47;8313507;28;20400;-74
2022/11/23 09:47:35;;;;;;;7.13;4.30;;;;;;;8.86;60.01;96732.06;8313985;28;20222;-75
2022/11/23 09:51:38;;;;;;;9.93;4.13;;;;;;;8.86;60.05;96741.56;8313660;28;20226;-75
2022/11/23 09:55:43;;;;;;;9.00;4.13;;;;;;;8.29;61.02;96721.50;8313744;28;20341;-74
2022/11/23 09:59:50;;;;;;;8.50;3.80;;;;;;;9.19;59.26;96731.03;8313691;28;20230;-73
2022/11/23 10:03:55;;;;;;;7.03;3.80;;;;;;;8.82;59.88;96725.44;8313255;28;20243;-73
2022/11/23 10:08:04;;;;;;;8.13;4.33;;;;;;;8.97;59.66;96719.38;8313723;28;20469;-74
2022/11/23 10:12:16;;;;;;;6.73;3.67;;;;;;;9.55;57.46;96716.88;8319477;28;20230;-74
2022/11/23 10:16:26;;;;;;;6.00;3.47;;;;;;;9.73;57.88;96720.94;8319470;28;20233;-73
2022/11/23 10:20:42;;;;;;;8.90;4.40;;;;;;;9.48;58.33;96716.41;8319961;28;20245;-73
2022/11/23 10:24:49;;;;;;;10.00;4.20;;;;;;;10.13;56.96;96708.13;8319570;28;20530;-74
2022/11/23 10:28:54;;;;;;;5.50;3.60;;;;;;;10.32;55.92;96707.00;8319314;28;20236;-71
2022/11/23 10:33:01;;;;;;;8.23;4.00;;;;;;;10.24;56.44;96694.50;8319416;28;20547;-74
2022/11/23 10:37:08;;;;;;;9.03;3.93;;;;;;;10.01;55.59;96695.94;8319347;28;20242;-74
2022/11/23 10:41:14;;;;;;;7.33;3.70;;;;;;;10.68;55.16;96697.78;8319383;28;20226;-73
2022/11/23 10:45:20;;;;;;;7.83;3.80;;;;;;;10.96;53.93;96702.81;8319517;28;20392;-74
2022/11/23 10:49:25;;;;;;;4.77;3.47;;;;;;;10.80;54.97;96701.38;8318890;28;20410;-74
2022/11/23 10:53:29;;;;;;;9.57;4.00;;;;;;;10.58;55.69;96692.38;8318991;28;20228;-73
2022/11/23 10:57:35;;;;;;;5.17;3.60;;;;;;;10.91;55.51;96691.13;8318933;28;20430;-74
2022/11/23 11:01:38;;;;;;;9.47;3.50;;;;;;;10.74;54.41;96695.66;8318612;28;20229;-74
2022/11/23 11:05:50;;;;;;;5.60;3.30;;;;;;;11.06;53.37;96702.22;8318564;28;20264;-74
2022/11/23 11:10:34;;;;;;;8.03;3.73;;;;;;;9.95;57.00;96699.75;8318177;28;20234;-73
2022/11/23 11:14:37;;;;;;;6.77;3.20;;;;;;;11.10;54.72;96678.63;8318075;28;20533;-75
2022/11/23 11:18:45;;;;;;;10.80;3.13;;;;;;;11.21;54.46;96687.41;8318069;28;20296;-75
2022/11/23 11:22:47;;;;;;;5.93;3.13;;;;;;;10.95;54.56;96688.22;8316658;28;20573;-75
2022/11/23 11:26:53;;;;;;;6.80;3.23;;;;;;;10.68;55.16;96677.06;8317891;28;20235;-76
2022/11/23 11:31:03;;;;;;;4.93;2.53;;;;;;;11.42;53.19;96680.78;8317395;28;20227;-76
2022/11/23 11:35:11;;;;;;;5.00;2.70;;;;;;;11.41;53.74;96671.34;8317630;28;20409;-75
2022/11/23 11:39:25;;;;;;;7.77;2.80;;;;;;;10.69;55.02;96674.41;8317346;28;20227;-75
2022/11/23 11:43:32;;;;;;;5.33;2.73;;;;;;;10.78;54.85;96651.44;8316861;28;20238;-73
2022/11/23 11:47:43;;;;;;;7.43;2.87;;;;;;;11.05;55.24;96672.06;8317076;28;20230;-75
2022/11/23 11:51:48;;;;;;;10.90;3.07;;;;;;;10.93;55.38;96664.19;8318576;28;20288;-75
2022/11/23 11:55:54;;;;;;;5.90;2.47;;;;;;;10.67;54.96;96668.50;8319210;28;20236;-81
2022/11/23 12:00:02;;;;;;;8.07;2.57;;;;;;;11.49;61.35;96660.44;8316951;28;20226;-75
2022/11/23 12:04:07;;;;;;;8.10;2.80;;;;;;;12.20;57.88;96653.75;8317701;28;20231;-78
2022/11/23 12:08:13;;;;;;;5.17;2.33;;;;;;;11.79;53.71;96656.69;8317043;28;20468;-76
2022/11/23 12:12:18;;;;;;;8.03;2.80;;;;;;;12.16;51.09;96656.69;8316342;28;20284;-78
2022/11/23 12:16:27;;;;;;;7.27;2.80;;;;;;;12.26;51.56;96660.28;8316054;28;20226;-75
2022/11/23 12:20:36;;;;;;;5.57;2.43;;;;;;;12.03;52.05;96644.59;8315708;28;20230;-74
2022/11/23 12:24:49;;;;;;;7.70;2.87;;;;;;;12.03;51.40;96644.59;8316031;28;20234;-77
2022/11/23 12:29:07;;;;;;;4.87;2.13;;;;;;;12.30;51.02;96648.75;8315571;28;20298;-72
2022/11/23 12:33:29;;;;;;;8.47;2.90;;;;;;;12.39;50.31;96649.84;8315474;28;20537;-74
2022/11/23 12:37:40;;;;;;;6.50;2.50;;;;;;;12.15;50.85;96593.59;8315435;28;20238;-74
2022/11/23 12:41:47;;;;;;;5.80;2.13;;;;;;;12.59;50.34;96641.44;8315566;28;20297;-74
2022/11/23 12:46:10;;;;;;;5.67;2.50;;;;;;;12.68;49.81;96632.97;8315241;28;20226;-74
2022/11/23 12:50:21;;;;;;;4.80;2.20;;;;;;;12.86;50.00;96629.94;8315192;28;20234;-75
2022/11/23 12:54:38;;;;;;;5.47;2.30;;;;;;;12.88;49.99;96620.25;8315262;28;20444;-75
2022/11/23 12:58:42;;;;;;;9.23;2.43;;;;;;;13.01;48.55;96618.38;8314684;28;20415;-73
2022/11/23 13:03:15;;;;;;;5.70;2.20;;;;;;;12.14;50.60;96620.47;8315237;28;20231;-72
2022/11/23 13:07:49;;;;;;;4.30;2.30;;;;;;;12.61;49.67;96613.56;8314700;28;20220;-72
2022/11/23 13:12:12;;;;;;;5.30;2.03;;;;;;;12.83;47.81;96611.97;8314736;28;20395;-73
2022/11/23 13:16:38;;;;;;;4.77;1.63;;;;;;;12.49;48.49;96609.31;8314065;28;20229;-72
2022/11/23 13:20:57;;;;;;;4.47;1.60;;;;;;;13.28;46.85;96612.84;8314490;28;20231;-73
2022/11/23 13:25:22;;;;;;;5.23;1.67;;;;;;;11.93;48.24;96608.09;8313793;28;20231;-72
2022/11/23 13:29:47;;;;;;;4.57;1.60;;;;;;;12.38;47.82;96610.06;8314342;28;20438;-73
2022/11/23 13:33:51;;;;;;;4.30;1.57;;;;;;;13.03;46.94;96597.47;8314130;28;20278;-72
2022/11/23 13:38:18;;;;;;;6.77;1.97;;;;;;;13.10;46.66;96606.47;8313523;28;20231;-72
2022/11/23 13:42:22;;;;;;;6.07;1.90;;;;;;;12.63;48.34;96603.06;8313876;28;20222;-72
2022/11/23 13:46:27;;;;;;;7.10;2.20;;;;;;;11.65;50.55;96590.19;8313251;28;20239;-74
2022/11/23 13:50:30;;;;;;;5.47;1.97;;;;;;;11.81;50.40;96585.59;8314263;28;20433;-73
2022/11/23 13:54:33;;;;;;;4.13;2.00;;;;;;;12.09;49.14;96578.47;8313953;28;20223;-73
2022/11/23 13:58:39;;;;;;;5.90;1.93;;;;;;;12.67;48.48;96581.94;8313878;28;20242;-73
2022/11/23 14:02:43;;;;;;;5.97;2.00;;;;;;;12.97;47.66;96580.59;8313651;28;20514;-73
2022/11/23 14:06:47;;;;;;;4.70;1.63;;;;;;;12.87;48.52;96571.81;8313816;28;20233;-73
2022/11/23 14:10:50;;;;;;;5.97;1.70;;;;;;;12.65;48.05;96576.03;8313716;28;20226;-74
2022/11/23 14:14:58;;;;;;;5.80;1.80;;;;;;;12.45;47.65;96574.94;8312984;28;20242;-72
2022/11/23 14:19:05;;;;;;;4.43;1.93;;;;;;;12.74;47.44;96576.28;8313340;28;20421;-73
2022/11/23 14:23:26;;;;;;;5.13;2.10;;;;;;;12.39;47.67;96567.59;8313440;28;20235;-74
2022/11/23 14:27:40;;;;;;;6.40;2.33;;;;;;;12.04;49.21;96580.56;8313678;28;20486;-73
2022/11/23 14:32:13;;;;;;;3.90;2.00;;;;;;;11.27;51.10;96579.00;8313503;28;20231;-73
2022/11/23 14:36:26;;;;;;;3.50;2.20;;;;;;;11.49;50.57;96585.28;8313260;28;20393;-73
2022/11/23 14:40:30;;;;;;;5.93;2.43;;;;;;;11.30;51.35;96586.53;8313231;28;20231;-73
2022/11/23 14:44:34;;;;;;;7.37;2.50;;;;;;;11.37;51.58;96578.38;8313096;28;20230;-74
2022/11/23 14:48:41;;;;;;;8.13;2.30;;;;;;;11.28;51.31;96585.81;8313364;28;20465;-75
2022/11/23 14:52:45;;;;;;;4.23;1.87;;;;;;;11.35;51.70;96591.44;8312883;28;20270;-74
2022/11/23 14:56:48;;;;;;;3.87;1.70;;;;;;;11.22;51.77;96585.44;8316239;28;20226;-74
2022/11/23 15:00:52;;;;;;;5.43;1.90;;;;;;;11.20;51.21;96582.13;8318479;28;20238;-74
2022/11/23 15:05:03;;;;;;;3.27;1.73;;;;;;;10.98;51.71;96593.94;8318162;28;20226;-74
2022/11/23 15:09:12;;;;;;;5.10;1.60;;;;;;;10.87;51.79;96592.09;8318181;28;20245;-74
2022/11/23 15:13:20;;;;;;;5.50;1.80;;;;;;;10.86;51.27;96581.81;8318354;28;20234;-74
2022/11/23 15:17:24;;;;;;;4.37;2.40;;;;;;;10.80;51.45;96583.06;8318172;28;20230;-73
2022/11/23 15:21:29;;;;;;;3.77;1.93;;;;;;;10.47;52.49;96581.78;8318038;28;20251;-73
2022/11/23 15:25:32;;;;;;;6.57;2.43;;;;;;;10.45;52.64;96578.47;8317824;28;20230;-75
2022/11/23 15:29:36;;;;;;;7.00;2.80;;;;;;;10.58;52.36;96578.47;8317640;28;20236;-74
2022/11/23 15:33:40;;;;;;;10.73;5.90;;;;;;;10.41;52.84;96576.19;8317382;28;20237;-73
2022/11/23 15:37:46;;;;;;;6.97;3.73;;;;;;;10.35;53.28;96574.81;8317647;28;20548;-73
2022/11/23 15:41:49;;;;;;;7.73;3.97;;;;;;;10.16;53.88;96577.75;8317399;28;20576;-74
2022/11/23 15:46:04;;;;;;;5.87;3.43;;;;;;;10.30;53.42;96558.72;8316925;28;20237;-71
2022/11/23 15:50:09;;;;;;;10.47;4.87;;;;;;;10.49;53.51;96584.25;8317015;28;20235;-73
2022/11/23 15:54:19;;;;;;;10.73;5.60;;;;;;;10.12;54.10;96582.28;8317068;28;20231;-73
2022/11/23 15:58:23;;;;;;;9.10;4.40;;;;;;;9.96;55.64;96590.22;8316743;28;20229;-74
2022/11/23 16:02:29;;;;;;;10.37;4.73;;;;;;;10.29;54.25;96588.13;8316875;28;20556;-74
2022/11/23 16:06:37;;;;;;;6.27;4.20;;;;;;;10.14;55.17;96595.13;8316016;28;20229;-73
2022/11/23 16:10:54;;;;;;;10.13;4.73;;;;;;;10.11;55.17;96585.81;8316502;28;20248;-73
2022/11/23 16:14:58;;;;;;;7.83;5.07;;;;;;;9.79;56.31;96575.75;8315996;28;20510;-74
2022/11/23 16:19:01;;;;;;;7.83;4.93;;;;;;;9.00;59.68;96568.59;8316345;28;20536;-74
2022/11/23 16:23:04;;;;;;;11.93;6.47;;;;;;;9.20;59.16;96575.97;8316235;28;20559;-74
2022/11/23 16:27:15;;;;;;;9.07;6.00;;;;;;;9.44;58.85;96577.97;8316204;28;20226;-74
2022/11/23 16:31:28;;;;;;;12.27;7.97;;;;;;;8.82;61.07;96574.88;8315994;28;20522;-74
2022/11/23 16:35:30;;;;;;;11.60;6.90;;;;;;;8.87;61.56;96575.41;8315752;28;20234;-74
2022/11/23 16:39:33;;;;;;;10.30;6.50;;;;;;;9.05;60.68;96576.06;8315622;28;20241;-74
2022/11/23 16:43:38;;;;;;;9.50;6.47;;;;;;;9.15;60.75;96585.75;8315443;28;20229;-74
2022/11/23 16:47:52;;;;;;;8.30;5.80;;;;;;;8.93;61.52;96582.78;8315607;28;20234;-73
2022/11/23 16:51:55;;;;;;;12.63;5.77;;;;;;;8.92;61.92;96581.97;8315117;28;20314;-73
2022/11/23 16:56:00;;;;;;;13.63;9.57;;;;;;;9.04;61.32;96593.31;8315425;28;20528;-72
2022/11/23 17:00:08;;;;;;;19.23;13.87;;;;;;;8.95;61.92;96592.13;8314732;28;20233;-74
2022/11/23 17:04:15;;;;;;;11.07;7.53;;;;;;;9.06;61.23;96600.97;8314990;28;20236;-72
2022/11/23 17:08:19;;;;;;;12.47;7.97;;;;;;;9.23;60.32;96608.53;8314831;28;20257;-73
2022/11/23 17:12:25;;;;;;;12.93;7.30;;;;;;;8.50;63.15;96608.56;8314847;28;20234;-73
2022/11/23 17:16:30;;;;;;;10.87;7.13;;;;;;;8.55;63.20;96617.69;8314418;28;20237;-73
2022/11/23 17:20:33;;;;;;;14.53;8.27;;;;;;;8.92;61.87;96618.09;8314678;28;20534;-74
2022/11/23 17:24:35;;;;;;;14.13;8.20;;;;;;;9.27;60.17;96638.44;8314657;28;20227;-74
2022/11/23 17:28:39;;;;;;;13.93;8.00;;;;;;;8.76;61.46;96636.25;8314565;28;20528;-73
2022/11/23 17:32:43;;;;;;;14.17;6.70;;;;;;;9.11;60.62;96646.25;8314637;28;20228;-73
2022/11/23 17:36:46;;;;;;;10.93;7.23;;;;;;;9.29;59.51;96649.50;8313181;28;20230;-74
2022/11/23 17:40:50;;;;;;;10.87;7.03;;;;;;;9.30;59.45;96665.84;8314691;28;20235;-74
2022/11/23 17:44:52;;;;;;;11.00;7.60;;;;;;;9.25;59.39;96665.25;8313951;28;20223;-73
2022/11/23 17:48:58;;;;;;;13.17;8.33;;;;;;;9.08;59.61;96667.13;8314146;28;20283;-74
2022/11/23 17:53:00;;;;;;;12.73;9.07;;;;;;;9.08;59.30;96661.09;8314073;28;20258;-73
2022/11/23 17:57:03;;;;;;;17.57;11.50;;;;;;;9.21;59.26;96672.38;8313915;28;20235;-74
2022/11/23 18:01:11;;;;;;;18.30;11.27;;;;;;;9.03;59.65;96676.06;8313937;28;20568;-74
2022/11/23 18:05:16;;;;;;;20.60;11.97;;;;;;;8.98;59.50;96671.97;8313666;28;20298;-75
2022/11/23 18:09:23;;;;;;;22.50;13.27;;;;;;;9.08;59.25;96676.59;8314022;28;20415;-75
2022/11/23 18:13:26;;;;;;;19.73;12.20;;;;;;;8.97;59.66;96669.50;8313707;28;20302;-76
2022/11/23 18:17:29;;;;;;;17.60;11.87;;;;;;;8.87;59.61;96678.69;8313654;28;20529;-74
2022/11/23 18:21:33;;;;;;;15.57;10.80;;;;;;;8.93;59.45;96681.75;8313580;28;20250;-74
2022/11/23 18:25:36;;;;;;;15.67;11.90;;;;;;;8.96;59.00;96688.47;8314490;28;20226;-74
2022/11/23 18:29:39;;;;;;;14.87;11.97;;;;;;;8.83;59.02;96685.75;8314072;28;20405;-74
2022/11/23 18:33:42;;;;;;;20.00;11.93;;;;;;;8.62;59.36;96682.66;8319957;28;20230;-74
2022/11/23 18:37:46;;;;;;;16.10;12.10;;;;;;;8.65;59.13;96692.00;8320223;28;20238;-74
2022/11/23 18:41:48;;;;;;;15.00;11.00;;;;;;;8.67;59.46;96701.31;8319967;28;20239;-75
2022/11/23 18:45:51;;;;;;;13.83;10.07;;;;;;;8.77;58.84;96691.28;8319497;28;20511;-75
2022/11/23 18:49:55;;;;;;;14.23;9.10;;;;;;;8.15;60.79;96686.97;8318960;28;20544;-75
2022/11/23 18:54:05;;;;;;;11.67;5.47;;;;;;;10.43;83.26;96699.38;8319002;28;20259;-76
2022/11/23 18:58:09;;;;;;;8.53;6.27;;;;;;;11.14;63.73;96699.97;8319013;28;20255;-77
2022/11/23 19:02:12;;;;;;;12.13;8.63;;;;;;;9.83;58.09;96710.84;8318643;28;20417;-75
2022/11/23 19:06:16;;;;;;;12.57;8.83;;;;;;;9.49;58.38;96717.25;8318481;28;20233;-74
2022/11/23 19:10:21;;;;;;;13.47;9.23;;;;;;;9.29;58.75;96728.75;8318474;28;20253;-75
2022/11/23 19:14:24;;;;;;;13.97;9.70;;;;;;;8.75;60.38;96731.84;8318268;28;20237;-74
2022/11/23 19:18:27;;;;;;;11.43;8.73;;;;;;;8.76;60.59;96734.34;8318544;28;20270;-76
2022/11/23 19:22:32;;;;;;;13.30;8.83;;;;;;;8.62;60.88;96744.59;8318090;28;20239;-76